sensor_id;sensor_type;location;lat;lon;timestamp;pressure;altitude;pressure_sealevel;temperature;humidity
73240;BME280;61452;40.054;4.110;2023-04-10T00:00:14;102259.00;;;17.16;54.94
73240;BME280;61452;40.054;4.110;2023-04-10T00:05:16;102259.09;;;17.15;55.26
73240;BME280;61452;40.054;4.110;2023-04-10T00:10:18;102253.69;;;17.16;55.18
73240;BME280;61452;40.054;4.110;2023-04-10T00:15:20;102245.91;;;17.13;55.36
73240;BME280;61452;40.054;4.110;2023-04-10T00:20:23;102240.69;;;17.12;55.42
73240;BME280;61452;40.054;4.110;2023-04-10T00:25:26;102243.41;;;17.10;55.52
73240;BME280;61452;40.054;4.110;2023-04-10T00:30:29;102239.75;;;17.13;54.94
73240;BME280;61452;40.054;4.110;2023-04-10T00:35:31;102242.41;;;17.13;54.96
73240;BME280;61452;40.054;4.110;2023-04-10T00:40:33;102231.72;;;17.14;54.98
73240;BME280;61452;40.054;4.110;2023-04-10T00:45:35;102238.88;;;17.12;55.03
73240;BME280;61452;40.054;4.110;2023-04-10T00:50:37;102233.59;;;17.12;55.00
73240;BME280;61452;40.054;4.110;2023-04-10T00:55:40;102219.47;;;17.12;55.03
73240;BME280;61452;40.054;4.110;2023-04-10T01:00:42;102217.69;;;17.12;54.94
73240;BME280;61452;40.054;4.110;2023-04-10T01:11:02;102215.03;;;17.12;55.14
73240;BME280;61452;40.054;4.110;2023-04-10T01:16:12;102207.16;;;17.11;55.24
73240;BME280;61452;40.054;4.110;2023-04-10T01:21:17;102207.16;;;17.11;55.14
73240;BME280;61452;40.054;4.110;2023-04-10T01:32:01;102204.41;;;17.12;55.16
73240;BME280;61452;40.054;4.110;2023-04-10T01:37:09;102206.28;;;17.10;55.35
73240;BME280;61452;40.054;4.110;2023-04-10T01:42:13;102206.22;;;17.12;55.08
73240;BME280;61452;40.054;4.110;2023-04-10T01:47:17;102193.03;;;17.10;54.97
73240;BME280;61452;40.054;4.110;2023-04-10T01:52:21;102185.88;;;17.12;54.98
73240;BME280;61452;40.054;4.110;2023-04-10T01:57:33;102177.22;;;17.09;54.97
73240;BME280;61452;40.054;4.110;2023-04-10T02:02:37;102180.75;;;17.09;54.99
73240;BME280;61452;40.054;4.110;2023-04-10T02:07:50;102171.94;;;17.09;54.88
73240;BME280;61452;40.054;4.110;2023-04-10T02:13:00;102167.47;;;17.09;54.74
73240;BME280;61452;40.054;4.110;2023-04-10T02:18:07;102167.47;;;17.09;54.89
73240;BME280;61452;40.054;4.110;2023-04-10T02:23:11;102166.69;;;17.07;54.91
73240;BME280;61452;40.054;4.110;2023-04-10T02:28:16;102174.72;;;17.06;55.06
73240;BME280;61452;40.054;4.110;2023-04-10T02:33:18;102164.13;;;17.06;55.27
73240;BME280;61452;40.054;4.110;2023-04-10T02:38:20;102161.41;;;17.07;55.12
73240;BME280;61452;40.054;4.110;2023-04-10T02:43:23;102160.53;;;17.07;55.23
73240;BME280;61452;40.054;4.110;2023-04-10T02:48:25;102160.63;;;17.05;55.31
73240;BME280;61452;40.054;4.110;2023-04-10T02:53:32;102158.91;;;17.04;55.15
73240;BME280;61452;40.054;4.110;2023-04-10T02:58:35;102156.16;;;17.06;55.04
73240;BME280;61452;40.054;4.110;2023-04-10T03:03:38;102159.59;;;17.08;55.04
73240;BME280;61452;40.054;4.110;2023-04-10T03:08:41;102162.34;;;17.06;55.10
73240;BME280;61452;40.054;4.110;2023-04-10T03:13:45;102163.34;;;17.04;55.12
73240;BME280;61452;40.054;4.110;2023-04-10T03:18:47;102157.97;;;17.05;55.09
73240;BME280;61452;40.054;4.110;2023-04-10T03:23:49;102154.38;;;17.06;55.13
73240;BME280;61452;40.054;4.110;2023-04-10T03:28:52;102150.88;;;17.06;55.17
73240;BME280;61452;40.054;4.110;2023-04-10T03:33:54;102154.47;;;17.05;55.22
73240;BME280;61452;40.054;4.110;2023-04-10T03:38:57;102145.75;;;17.03;55.38
73240;BME280;61452;40.054;4.110;2023-04-10T03:44:00;102143.97;;;17.03;55.35
73240;BME280;61452;40.054;4.110;2023-04-10T03:49:04;102145.81;;;17.01;55.17
73240;BME280;61452;40.054;4.110;2023-04-10T03:54:07;102143.00;;;17.04;55.21
73240;BME280;61452;40.054;4.110;2023-04-10T03:59:10;102139.59;;;17.02;55.51
73240;BME280;61452;40.054;4.110;2023-04-10T04:04:14;102151.97;;;17.02;55.29
73240;BME280;61452;40.054;4.110;2023-04-10T04:09:34;102160.69;;;17.04;55.06
73240;BME280;61452;40.054;4.110;2023-04-10T04:14:56;102153.91;;;16.98;55.10
73240;BME280;61452;40.054;4.110;2023-04-10T04:20:19;102166.97;;;17.03;55.12
73240;BME280;61452;40.054;4.110;2023-04-10T04:25:41;102169.59;;;17.03;55.02
73240;BME280;61452;40.054;4.110;2023-04-10T04:31:04;102176.69;;;17.02;54.96
73240;BME280;61452;40.054;4.110;2023-04-10T04:36:33;102184.66;;;17.02;54.86
73240;BME280;61452;40.054;4.110;2023-04-10T04:41:48;102189.84;;;17.04;54.69
73240;BME280;61452;40.054;4.110;2023-04-10T04:47:09;102181.22;;;17.00;54.87
73240;BME280;61452;40.054;4.110;2023-04-10T04:52:24;102188.31;;;16.99;55.00
73240;BME280;61452;40.054;4.110;2023-04-10T04:57:40;102194.47;;;17.00;55.00
73240;BME280;61452;40.054;4.110;2023-04-10T05:03:01;102198.84;;;17.01;55.06
73240;BME280;61452;40.054;4.110;2023-04-10T05:08:03;102202.41;;;17.00;54.79
73240;BME280;61452;40.054;4.110;2023-04-10T05:13:21;102207.97;;;16.95;54.95
73240;BME280;61452;40.054;4.110;2023-04-10T05:18:42;102213.19;;;16.97;55.05
73240;BME280;61452;40.054;4.110;2023-04-10T05:24:10;102213.34;;;16.94;55.33
73240;BME280;61452;40.054;4.110;2023-04-10T05:29:27;102210.63;;;16.95;55.14
73240;BME280;61452;40.054;4.110;2023-04-10T05:34:49;102210.56;;;16.97;54.97
73240;BME280;61452;40.054;4.110;2023-04-10T05:40:13;102213.09;;;16.98;54.93
73240;BME280;61452;40.054;4.110;2023-04-10T05:45:29;102207.03;;;16.96;55.17
73240;BME280;61452;40.054;4.110;2023-04-10T05:50:40;102213.28;;;16.95;55.03
73240;BME280;61452;40.054;4.110;2023-04-10T05:55:49;102216.78;;;16.96;55.02
73240;BME280;61452;40.054;4.110;2023-04-10T06:01:18;102223.81;;;16.97;54.96
73240;BME280;61452;40.054;4.110;2023-04-10T06:06:26;102213.19;;;16.97;55.05
73240;BME280;61452;40.054;4.110;2023-04-10T06:11:29;102227.38;;;16.96;55.13
73240;BME280;61452;40.054;4.110;2023-04-10T06:16:33;102222.16;;;16.94;55.21
73240;BME280;61452;40.054;4.110;2023-04-10T06:21:35;102233.63;;;16.95;55.34
73240;BME280;61452;40.054;4.110;2023-04-10T06:26:37;102229.25;;;16.94;55.18
73240;BME280;61452;40.054;4.110;2023-04-10T06:31:40;102241.56;;;16.95;55.17
73240;BME280;61452;40.054;4.110;2023-04-10T06:36:42;102247.66;;;16.97;55.13
73240;BME280;61452;40.054;4.110;2023-04-10T06:41:44;102242.44;;;16.95;55.27
73240;BME280;61452;40.054;4.110;2023-04-10T06:46:57;102251.31;;;16.94;55.23
73240;BME280;61452;40.054;4.110;2023-04-10T06:52:00;102257.53;;;16.93;55.13
73240;BME280;61452;40.054;4.110;2023-04-10T06:57:02;102254.97;;;16.92;55.13
73240;BME280;61452;40.054;4.110;2023-04-10T07:02:04;102264.63;;;16.93;54.98
73240;BME280;61452;40.054;4.110;2023-04-10T07:07:07;102261.06;;;16.94;54.91
73240;BME280;61452;40.054;4.110;2023-04-10T07:12:10;102263.63;;;16.95;55.01
73240;BME280;61452;40.054;4.110;2023-04-10T07:17:13;102269.88;;;16.94;54.92
73240;BME280;61452;40.054;4.110;2023-04-10T07:22:15;102270.81;;;16.93;55.00
73240;BME280;61452;40.054;4.110;2023-04-10T07:27:17;102265.50;;;16.93;55.17
73240;BME280;61452;40.054;4.110;2023-04-10T07:32:19;102268.22;;;16.92;55.22
73240;BME280;61452;40.054;4.110;2023-04-10T07:37:21;102277.03;;;16.92;55.08
73240;BME280;61452;40.054;4.110;2023-04-10T07:42:23;102273.38;;;16.95;54.90
73240;BME280;61452;40.054;4.110;2023-04-10T07:47:26;102278.59;;;16.96;55.02
73240;BME280;61452;40.054;4.110;2023-04-10T07:52:28;102292.78;;;16.95;54.98
73240;BME280;61452;40.054;4.110;2023-04-10T07:57:30;102291.16;;;16.93;55.00
73240;BME280;61452;40.054;4.110;2023-04-10T08:02:33;102291.06;;;16.94;55.24
73240;BME280;61452;40.054;4.110;2023-04-10T08:07:35;102299.03;;;16.94;54.90
73240;BME280;61452;40.054;4.110;2023-04-10T08:12:37;102296.31;;;16.96;55.06
73240;BME280;61452;40.054;4.110;2023-04-10T08:17:39;102299.03;;;16.94;55.24
73240;BME280;61452;40.054;4.110;2023-04-10T08:22:41;102308.78;;;16.94;55.37
73240;BME280;61452;40.054;4.110;2023-04-10T08:27:43;102307.91;;;16.93;55.41
73240;BME280;61452;40.054;4.110;2023-04-10T08:32:45;102318.50;;;16.93;55.49
73240;BME280;61452;40.054;4.110;2023-04-10T08:37:47;102327.31;;;16.94;55.28
73240;BME280;61452;40.054;4.110;2023-04-10T08:43:02;102330.84;;;16.94;55.35
73240;BME280;61452;40.054;4.110;2023-04-10T08:48:07;102333.41;;;16.96;55.36
73240;BME280;61452;40.054;4.110;2023-04-10T08:53:12;102329.97;;;16.94;55.36
73240;BME280;61452;40.054;4.110;2023-04-10T08:58:14;102329.19;;;16.92;55.26
73240;BME280;61452;40.054;4.110;2023-04-10T09:03:16;102330.75;;;16.96;55.30
73240;BME280;61452;40.054;4.110;2023-04-10T09:08:19;102321.94;;;16.95;55.14
73240;BME280;61452;40.054;4.110;2023-04-10T09:13:35;102335.19;;;16.95;55.28
73240;BME280;61452;40.054;4.110;2023-04-10T09:18:48;102328.19;;;16.94;55.57
73240;BME280;61452;40.054;4.110;2023-04-10T09:23:59;102337.13;;;16.92;55.61
73240;BME280;61452;40.054;4.110;2023-04-10T09:29:03;102335.19;;;16.95;55.43
73240;BME280;61452;40.054;4.110;2023-04-10T09:34:10;102340.44;;;16.97;55.31
73240;BME280;61452;40.054;4.110;2023-04-10T09:39:12;102339.56;;;16.96;55.50
73240;BME280;61452;40.054;4.110;2023-04-10T09:44:17;102332.56;;;16.95;55.55
73240;BME280;61452;40.054;4.110;2023-04-10T09:49:20;102333.47;;;16.94;55.57
73240;BME280;61452;40.054;4.110;2023-04-10T09:54:34;102337.00;;;16.95;55.49
73240;BME280;61452;40.054;4.110;2023-04-10T09:59:39;102348.28;;;16.98;55.45
73240;BME280;61452;40.054;4.110;2023-04-10T10:04:45;102362.41;;;16.99;55.24
73240;BME280;61452;40.054;4.110;2023-04-10T10:09:50;102362.47;;;16.97;55.61
73240;BME280;61452;40.054;4.110;2023-04-10T10:15:03;102364.28;;;16.97;55.42
73240;BME280;61452;40.054;4.110;2023-04-10T10:20:10;102367.78;;;16.97;55.46
73240;BME280;61452;40.054;4.110;2023-04-10T10:25:14;102365.91;;;16.99;55.32
73240;BME280;61452;40.054;4.110;2023-04-10T10:30:17;102371.22;;;16.99;55.38
73240;BME280;61452;40.054;4.110;2023-04-10T10:35:31;102372.25;;;16.97;55.54
73240;BME280;61452;40.054;4.110;2023-04-10T10:51:02;102381.81;;;16.99;55.24
73240;BME280;61452;40.054;4.110;2023-04-10T11:01:19;102398.50;;;17.02;55.07
73240;BME280;61452;40.054;4.110;2023-04-10T11:06:48;102398.66;;;16.98;55.37
73240;BME280;61452;40.054;4.110;2023-04-10T11:11:57;102400.38;;;16.99;55.31
73240;BME280;61452;40.054;4.110;2023-04-10T11:16:59;102395.06;;;16.99;55.33
73240;BME280;61452;40.054;4.110;2023-04-10T11:22:06;102391.50;;;17.01;55.31
73240;BME280;61452;40.054;4.110;2023-04-10T11:27:39;102387.06;;;17.01;55.29
73240;BME280;61452;40.054;4.110;2023-04-10T11:32:41;102398.50;;;17.02;55.74
73240;BME280;61452;40.054;4.110;2023-04-10T11:37:44;102396.78;;;17.01;55.56
73240;BME280;61452;40.054;4.110;2023-04-10T11:42:46;102397.59;;;17.03;55.74
73240;BME280;61452;40.054;4.110;2023-04-10T11:47:51;102408.09;;;17.04;55.91
73240;BME280;61452;40.054;4.110;2023-04-10T11:52:53;102396.56;;;17.05;56.19
73240;BME280;61452;40.054;4.110;2023-04-10T11:57:57;102387.84;;;17.03;56.21
73240;BME280;61452;40.054;4.110;2023-04-10T12:02:59;102379.88;;;17.03;56.31
73240;BME280;61452;40.054;4.110;2023-04-10T12:08:01;102370.97;;;17.04;56.40
73240;BME280;61452;40.054;4.110;2023-04-10T12:13:03;102360.47;;;17.03;56.42
73240;BME280;61452;40.054;4.110;2023-04-10T12:18:07;102371.84;;;17.05;56.58
73240;BME280;61452;40.054;4.110;2023-04-10T12:23:10;102358.59;;;17.05;56.51
73240;BME280;61452;40.054;4.110;2023-04-10T12:28:19;102361.22;;;17.05;56.26
73240;BME280;61452;40.054;4.110;2023-04-10T12:33:23;102364.66;;;17.07;56.16
73240;BME280;61452;40.054;4.110;2023-04-10T12:38:42;102350.56;;;17.06;56.24
73240;BME280;61452;40.054;4.110;2023-04-10T12:43:45;102341.59;;;17.09;56.63
73240;BME280;61452;40.054;4.110;2023-04-10T12:48:47;102333.78;;;17.06;56.86
73240;BME280;61452;40.054;4.110;2023-04-10T12:53:49;102329.34;;;17.06;56.86
73240;BME280;61452;40.054;4.110;2023-04-10T12:59:05;102328.50;;;17.06;56.34
73240;BME280;61452;40.054;4.110;2023-04-10T13:04:07;102320.00;;;16.99;56.47
73240;BME280;61452;40.054;4.110;2023-04-10T13:09:11;102334.59;;;17.08;56.71
73240;BME280;61452;40.054;4.110;2023-04-10T13:14:14;102327.50;;;17.08;56.76
73240;BME280;61452;40.054;4.110;2023-04-10T13:19:17;102327.38;;;17.10;56.83
73240;BME280;61452;40.054;4.110;2023-04-10T13:24:20;102320.28;;;17.10;56.78
73240;BME280;61452;40.054;4.110;2023-04-10T13:29:22;102319.34;;;17.11;56.84
73240;BME280;61452;40.054;4.110;2023-04-10T13:34:24;102321.16;;;17.11;56.81
73240;BME280;61452;40.054;4.110;2023-04-10T13:39:28;102322.00;;;17.11;56.82
73240;BME280;61452;40.054;4.110;2023-04-10T13:44:30;102321.16;;;17.11;57.02
73240;BME280;61452;40.054;4.110;2023-04-10T13:49:33;102317.50;;;17.13;57.23
73240;BME280;61452;40.054;4.110;2023-04-10T13:54:35;102324.59;;;17.13;56.82
73240;BME280;61452;40.054;4.110;2023-04-10T13:59:37;102325.38;;;17.15;57.06
73240;BME280;61452;40.054;4.110;2023-04-10T14:04:39;102320.16;;;17.13;56.82
73240;BME280;61452;40.054;4.110;2023-04-10T14:09:43;102333.34;;;17.15;56.82
73240;BME280;61452;40.054;4.110;2023-04-10T14:14:46;102315.53;;;17.17;57.38
73240;BME280;61452;40.054;4.110;2023-04-10T14:19:49;102298.75;;;17.16;57.54
73240;BME280;61452;40.054;4.110;2023-04-10T14:24:52;102279.28;;;17.17;57.46
73240;BME280;61452;40.054;4.110;2023-04-10T14:30:10;102289.88;;;17.17;57.27
73240;BME280;61452;40.054;4.110;2023-04-10T14:35:13;102274.34;;;17.10;57.23
73240;BME280;61452;40.054;4.110;2023-04-10T14:40:15;102276.53;;;17.19;57.32
73240;BME280;61452;40.054;4.110;2023-04-10T14:45:17;102272.09;;;17.19;57.79
73240;BME280;61452;40.054;4.110;2023-04-10T14:50:20;102268.59;;;17.19;57.75
73240;BME280;61452;40.054;4.110;2023-04-10T14:55:22;102267.72;;;17.18;57.75
73240;BME280;61452;40.054;4.110;2023-04-10T15:00:25;102267.66;;;17.20;57.45
73240;BME280;61452;40.054;4.110;2023-04-10T15:05:30;102269.38;;;17.21;57.34
73240;BME280;61452;40.054;4.110;2023-04-10T15:10:32;102272.78;;;17.23;57.74
73240;BME280;61452;40.054;4.110;2023-04-10T15:15:34;102270.13;;;17.23;58.19
73240;BME280;61452;40.054;4.110;2023-04-10T15:20:36;102258.66;;;17.22;58.08
73240;BME280;61452;40.054;4.110;2023-04-10T15:25:39;102254.22;;;17.23;57.63
73240;BME280;61452;40.054;4.110;2023-04-10T15:30:42;102248.84;;;17.24;57.40
73240;BME280;61452;40.054;4.110;2023-04-10T15:35:47;102248.84;;;17.24;57.59
73240;BME280;61452;40.054;4.110;2023-04-10T15:40:50;102254.16;;;17.24;57.66
73240;BME280;61452;40.054;4.110;2023-04-10T15:45:52;102260.38;;;17.23;57.33
73240;BME280;61452;40.054;4.110;2023-04-10T15:50:55;102278.81;;;17.26;57.08
73240;BME280;61452;40.054;4.110;2023-04-10T15:55:57;102277.94;;;17.26;56.92
73240;BME280;61452;40.054;4.110;2023-04-10T16:00:59;102277.94;;;17.26;57.17
73240;BME280;61452;40.054;4.110;2023-04-10T16:06:02;102287.63;;;17.27;57.23
73240;BME280;61452;40.054;4.110;2023-04-10T16:11:04;102279.66;;;17.27;57.53
73240;BME280;61452;40.054;4.110;2023-04-10T16:16:12;102279.66;;;17.27;57.22
73240;BME280;61452;40.054;4.110;2023-04-10T16:21:15;102289.34;;;17.28;57.19
73240;BME280;61452;40.054;4.110;2023-04-10T16:26:17;102278.63;;;17.29;56.90
73240;BME280;61452;40.054;4.110;2023-04-10T16:31:20;102289.22;;;17.29;57.13
73240;BME280;61452;40.054;4.110;2023-04-10T16:36:22;102292.81;;;17.28;57.33
73240;BME280;61452;40.054;4.110;2023-04-10T16:41:24;102300.78;;;17.28;57.12
73240;BME280;61452;40.054;4.110;2023-04-10T16:46:27;102306.00;;;17.30;57.08
73240;BME280;61452;40.054;4.110;2023-04-10T16:51:29;102292.75;;;17.30;56.66
73240;BME280;61452;40.054;4.110;2023-04-10T16:56:31;102282.06;;;17.31;56.88
73240;BME280;61452;40.054;4.110;2023-04-10T17:01:34;102276.75;;;17.31;56.71
73240;BME280;61452;40.054;4.110;2023-04-10T17:06:40;102274.97;;;17.32;56.52
73240;BME280;61452;40.054;4.110;2023-04-10T17:11:42;102282.94;;;17.32;56.52
73240;BME280;61452;40.054;4.110;2023-04-10T17:16:44;102277.53;;;17.33;56.53
73240;BME280;61452;40.054;4.110;2023-04-10T17:21:47;102280.19;;;17.33;56.20
73240;BME280;61452;40.054;4.110;2023-04-10T17:26:49;102271.28;;;17.34;56.13
73240;BME280;61452;40.054;4.110;2023-04-10T17:31:51;102262.03;;;17.26;56.42
73240;BME280;61452;40.054;4.110;2023-04-10T17:36:53;102272.13;;;17.35;56.32
73240;BME280;61452;40.054;4.110;2023-04-10T17:41:55;102268.63;;;17.34;56.03
73240;BME280;61452;40.054;4.110;2023-04-10T17:46:58;102266.84;;;17.35;56.08
73240;BME280;61452;40.054;4.110;2023-04-10T17:52:00;102274.78;;;17.35;56.15
73240;BME280;61452;40.054;4.110;2023-04-10T17:57:03;102283.72;;;17.34;56.05
73240;BME280;61452;40.054;4.110;2023-04-10T18:02:05;102282.75;;;17.35;55.86
73240;BME280;61452;40.054;4.110;2023-04-10T18:07:07;102302.09;;;17.37;55.95
73240;BME280;61452;40.054;4.110;2023-04-10T18:12:09;102305.63;;;17.37;55.87
73240;BME280;61452;40.054;4.110;2023-04-10T18:17:12;102298.50;;;17.38;55.90
73240;BME280;61452;40.054;4.110;2023-04-10T18:22:14;102298.59;;;17.36;55.92
73240;BME280;61452;40.054;4.110;2023-04-10T18:27:16;102302.16;;;17.35;55.87
73240;BME280;61452;40.054;4.110;2023-04-10T18:32:18;102300.38;;;17.36;55.59
73240;BME280;61452;40.054;4.110;2023-04-10T18:37:20;102304.75;;;17.37;55.69
73240;BME280;61452;40.054;4.110;2023-04-10T18:42:23;102308.19;;;17.39;55.59
73240;BME280;61452;40.054;4.110;2023-04-10T18:47:25;102304.69;;;17.38;55.58
73240;BME280;61452;40.054;4.110;2023-04-10T18:52:27;102308.25;;;17.37;55.54
73240;BME280;61452;40.054;4.110;2023-04-10T18:57:29;102294.47;;;17.31;55.69
73240;BME280;61452;40.054;4.110;2023-04-10T19:02:31;102309.13;;;17.38;55.64
73240;BME280;61452;40.054;4.110;2023-04-10T19:07:34;102312.63;;;17.38;55.87
73240;BME280;61452;40.054;4.110;2023-04-10T19:12:36;102317.00;;;17.39;55.58
73240;BME280;61452;40.054;4.110;2023-04-10T19:17:40;102312.63;;;17.38;55.51
73240;BME280;61452;40.054;4.110;2023-04-10T19:22:42;102331.13;;;17.40;55.65
73240;BME280;61452;40.054;4.110;2023-04-10T19:27:45;102346.19;;;17.39;55.61
73240;BME280;61452;40.054;4.110;2023-04-10T19:32:47;102344.41;;;17.40;55.60
73240;BME280;61452;40.054;4.110;2023-04-10T19:37:49;102355.94;;;17.39;55.70
73240;BME280;61452;40.054;4.110;2023-04-10T19:42:51;102366.53;;;17.39;55.53
73240;BME280;61452;40.054;4.110;2023-04-10T19:47:54;102376.28;;;17.38;55.88
73240;BME280;61452;40.054;4.110;2023-04-10T19:52:56;102378.00;;;17.39;55.57
73240;BME280;61452;40.054;4.110;2023-04-10T19:58:00;102378.94;;;17.38;55.54
73240;BME280;61452;40.054;4.110;2023-04-10T20:03:02;102386.84;;;17.40;55.31
73240;BME280;61452;40.054;4.110;2023-04-10T20:08:04;102384.25;;;17.38;55.37
73240;BME280;61452;40.054;4.110;2023-04-10T20:13:07;102394.78;;;17.40;55.29
73240;BME280;61452;40.054;4.110;2023-04-10T20:18:09;102403.59;;;17.40;55.26
73240;BME280;61452;40.054;4.110;2023-04-10T20:23:11;102406.34;;;17.39;55.20
73240;BME280;61452;40.054;4.110;2023-04-10T20:28:14;102406.34;;;17.39;55.41
73240;BME280;61452;40.054;4.110;2023-04-10T20:33:18;102408.88;;;17.40;55.29
73240;BME280;61452;40.054;4.110;2023-04-10T20:38:20;102402.75;;;17.40;55.17
73240;BME280;61452;40.054;4.110;2023-04-10T20:43:22;102404.75;;;17.35;55.33
73240;BME280;61452;40.054;4.110;2023-04-10T20:48:24;102412.56;;;17.38;55.34
73240;BME280;61452;40.054;4.110;2023-04-10T20:53:26;102404.06;;;17.31;55.22
73240;BME280;61452;40.054;4.110;2023-04-10T20:58:30;102421.31;;;17.40;55.26
73240;BME280;61452;40.054;4.110;2023-04-10T21:03:32;102437.31;;;17.38;55.36
73240;BME280;61452;40.054;4.110;2023-04-10T21:08:34;102443.38;;;17.40;55.31
73240;BME280;61452;40.054;4.110;2023-04-10T21:13:36;102444.34;;;17.39;55.24
73240;BME280;61452;40.054;4.110;2023-04-10T21:18:39;102445.19;;;17.40;55.12
73240;BME280;61452;40.054;4.110;2023-04-10T21:23:41;102448.78;;;17.39;55.06
73240;BME280;61452;40.054;4.110;2023-04-10T21:28:43;102456.72;;;17.39;55.38
73240;BME280;61452;40.054;4.110;2023-04-10T21:33:45;102451.44;;;17.39;55.10
73240;BME280;61452;40.054;4.110;2023-04-10T21:38:48;102453.16;;;17.40;55.20
73240;BME280;61452;40.054;4.110;2023-04-10T21:43:50;102453.97;;;17.40;55.30
73240;BME280;61452;40.054;4.110;2023-04-10T21:48:52;102453.22;;;17.38;55.08
73240;BME280;61452;40.054;4.110;2023-04-10T21:53:55;102451.44;;;17.39;55.66
73240;BME280;61452;40.054;4.110;2023-04-10T21:58:57;102464.59;;;17.40;55.25
73240;BME280;61452;40.054;4.110;2023-04-10T22:03:59;102453.16;;;17.40;55.24
73240;BME280;61452;40.054;4.110;2023-04-10T22:09:01;102457.59;;;17.39;55.21
73240;BME280;61452;40.054;4.110;2023-04-10T22:14:05;102465.63;;;17.38;55.23
73240;BME280;61452;40.054;4.110;2023-04-10T22:19:17;102453.22;;;17.38;55.22
73240;BME280;61452;40.054;4.110;2023-04-10T22:24:20;102459.38;;;17.39;55.32
73240;BME280;61452;40.054;4.110;2023-04-10T22:29:22;102450.56;;;17.38;55.45
73240;BME280;61452;40.054;4.110;2023-04-10T22:34:24;102445.25;;;17.38;55.18
73240;BME280;61452;40.054;4.110;2023-04-10T22:39:26;102441.69;;;17.39;55.19
73240;BME280;61452;40.054;4.110;2023-04-10T22:44:28;102444.47;;;17.36;55.43
73240;BME280;61452;40.054;4.110;2023-04-10T22:49:30;102446.19;;;17.37;55.37
73240;BME280;61452;40.054;4.110;2023-04-10T22:54:32;102439.97;;;17.38;55.14
73240;BME280;61452;40.054;4.110;2023-04-10T22:59:35;102445.25;;;17.38;55.11
73240;BME280;61452;40.054;4.110;2023-04-10T23:04:38;102435.50;;;17.39;55.07
73240;BME280;61452;40.054;4.110;2023-04-10T23:09:40;102439.97;;;17.38;55.29
73240;BME280;61452;40.054;4.110;2023-04-10T23:14:42;102439.16;;;17.36;55.23
73240;BME280;61452;40.054;4.110;2023-04-10T23:19:44;102437.38;;;17.37;55.31
73240;BME280;61452;40.054;4.110;2023-04-10T23:24:51;102436.50;;;17.36;55.38
73240;BME280;61452;40.054;4.110;2023-04-10T23:29:54;102434.72;;;17.37;55.18
73240;BME280;61452;40.054;4.110;2023-04-10T23:34:56;102435.59;;;17.37;55.08
73240;BME280;61452;40.054;4.110;2023-04-10T23:39:58;102436.38;;;17.39;54.97
73240;BME280;61452;40.054;4.110;2023-04-10T23:45:00;102440.03;;;17.37;55.06
73240;BME280;61452;40.054;4.110;2023-04-10T23:50:03;102456.00;;;17.35;55.17
73240;BME280;61452;40.054;4.110;2023-04-10T23:55:05;102454.16;;;17.37;55.12
